Arden, Delaware
Current Conditions -  °F | °C
As of 5:51 PM on Monday 22 Dec 2014 (Local Time) from KILG Reporting Station
Overcast Overcast  
Wind Chill: 38°   Ceiling: 10000
Heat Index: 43°   Visibility: 9mi
Dew Point: 34°   Wind: 8mph
Humidity: 71%   Direction: 40°NE
Pressure: 30.17"   Gusts: NA
Location:  39.81°N, 75.49°W
Report Text: KILG 222151Z 04007KT 9SM OVC100 06/01 A3017 RMK AO2 RAE2054 SLP217 P0000 T00610011
Loading
Personal Weather Stations






























Interactive Weather Map New forecast layout! Learn more

10-Day Weather Forecast

Advertisements
Track Severe Weather on mobile